Time;durP1;ratioP1;P1;durP2;ratioP2;P2;SDS_P1;SDS_P2;PMS_P1;PMS_P2;Temp;Humidity;BMP_temperature;BMP_pressure;BME280_temperature;BME280_humidity;BME280_pressure;Samples;Min_cycle;Max_cycle;Signal;HPM_P1;HPM_P2
2021/03/05 00:00:58;;;;;;;40.05;20.72;;;;;;;2.26;77.21;99501.91;1797720;79;21098;-66
2021/03/05 00:03:28;;;;;;;38.25;21.27;;;;;;;2.28;77.25;99506.55;1797614;79;20994;-66
2021/03/05 00:05:57;;;;;;;39.55;21.85;;;;;;;2.28;77.35;99503.55;1797680;79;20883;-66
2021/03/05 00:08:25;;;;;;;36.20;20.08;;;;;;;2.30;77.34;99509.48;1797625;79;21492;-65
2021/03/05 00:10:55;;;;;;;44.18;22.87;;;;;;;2.32;77.46;99509.43;1797770;79;21488;-66
2021/03/05 00:13:24;;;;;;;41.00;22.82;;;;;;;2.29;77.66;99510.80;1797674;79;21286;-67
2021/03/05 00:15:52;;;;;;;42.93;21.77;;;;;;;2.29;77.93;99504.38;1797637;79;21013;-67
2021/03/05 00:18:20;;;;;;;43.95;21.52;;;;;;;2.28;78.22;99511.69;1797628;79;20990;-66
2021/03/05 00:20:52;;;;;;;39.38;21.75;;;;;;;2.26;78.50;99507.05;1777801;79;21006;-66
2021/03/05 00:23:20;;;;;;;43.50;23.32;;;;;;;2.23;78.83;99505.85;1797740;79;20982;-66
2021/03/05 00:25:49;;;;;;;43.58;22.55;;;;;;;2.22;78.95;99511.88;1797673;79;21356;-66
2021/03/05 00:28:19;;;;;;;41.95;23.40;;;;;;;2.20;79.12;99504.66;1797609;79;21005;-66
2021/03/05 00:30:47;;;;;;;40.03;22.22;;;;;;;2.19;79.27;99508.95;1797787;79;21914;-66
2021/03/05 00:33:16;;;;;;;40.67;21.93;;;;;;;2.19;79.39;99502.53;1797604;79;21002;-66
2021/03/05 00:35:46;;;;;;;42.83;21.12;;;;;;;2.18;79.47;99497.00;1794863;79;21311;-66
2021/03/05 00:38:15;;;;;;;39.60;20.65;;;;;;;2.19;79.63;99497.84;1797653;79;21260;-66
2021/03/05 00:40:43;;;;;;;40.08;21.17;;;;;;;2.18;79.82;99502.14;1797642;79;20907;-67
2021/03/05 00:43:12;;;;;;;41.35;22.55;;;;;;;2.18;80.07;99502.58;1797720;79;21002;-66
2021/03/05 00:45:41;;;;;;;42.25;22.48;;;;;;;2.17;80.29;99495.77;1797637;79;21013;-66
2021/03/05 00:48:10;;;;;;;43.05;21.60;;;;;;;2.17;80.44;99504.75;1797613;79;20950;-66
2021/03/05 00:50:40;;;;;;;41.77;21.48;;;;;;;2.17;80.60;99508.61;1797723;79;21186;-66
2021/03/05 00:53:10;;;;;;;36.20;19.98;;;;;;;2.16;80.68;99500.06;1800126;79;21024;-66
2021/03/05 00:55:38;;;;;;;39.92;20.43;;;;;;;2.15;80.75;99511.22;1803341;79;21021;-66
2021/03/05 00:58:08;;;;;;;42.40;23.10;;;;;;;2.13;80.89;99512.99;1802905;79;21041;-67
2021/03/05 01:00:37;;;;;;;43.78;20.75;;;;;;;2.12;81.01;99507.90;1774289;79;21255;-68
2021/03/05 01:03:09;;;;;;;43.98;21.52;;;;;;;2.10;81.20;99509.23;1803303;79;22308;-66
2021/03/05 01:05:37;;;;;;;33.33;19.90;;;;;;;2.09;81.31;99511.84;1803284;79;20942;-66
2021/03/05 01:08:07;;;;;;;39.85;21.23;;;;;;;2.08;81.45;99511.00;1803271;79;20933;-66
2021/03/05 01:10:38;;;;;;;38.25;21.25;;;;;;;2.08;81.55;99512.28;1802996;79;21590;-67
2021/03/05 01:13:06;;;;;;;40.25;21.57;;;;;;;2.06;81.68;99515.34;1803374;79;20890;-67
2021/03/05 01:15:34;;;;;;;37.85;22.32;;;;;;;2.07;81.66;99511.05;1803427;79;21183;-67
2021/03/05 01:18:03;;;;;;;38.80;21.07;;;;;;;2.07;81.67;99509.31;1821275;77;21595;-68
2021/03/05 01:20:32;;;;;;;37.58;21.23;;;;;;;2.06;81.69;99509.36;1833015;77;21025;-67
2021/03/05 01:23:00;;;;;;;39.67;22.02;;;;;;;2.07;81.76;99513.17;1823279;77;21005;-67
2021/03/05 01:25:31;;;;;;;38.75;21.17;;;;;;;2.08;81.72;99521.72;1830165;77;21017;-67
2021/03/05 01:27:59;;;;;;;44.75;23.00;;;;;;;2.05;81.72;99513.66;1828168;77;21136;-66
2021/03/05 01:30:27;;;;;;;40.40;21.37;;;;;;;2.04;81.79;99519.68;1830071;77;21638;-66
2021/03/05 01:32:57;;;;;;;39.98;21.45;;;;;;;2.02;81.81;99521.45;1828942;77;21579;-67
2021/03/05 01:35:27;;;;;;;40.65;22.22;;;;;;;1.99;81.85;99521.13;1842789;77;20910;-71
2021/03/05 01:37:56;;;;;;;41.65;21.35;;;;;;;1.97;81.93;99523.34;1848655;77;20913;-67
2021/03/05 01:40:32;;;;;;;37.40;20.92;;;;;;;1.95;82.00;99518.69;1848637;77;21356;-73
2021/03/05 01:43:01;;;;;;;41.63;21.75;;;;;;;1.92;82.09;99517.50;1848791;77;21012;-70
2021/03/05 01:45:30;;;;;;;38.83;21.90;;;;;;;1.90;82.12;99527.81;1848710;77;20984;-71
2021/03/05 01:48:08;;;;;;;36.28;20.68;;;;;;;1.89;82.21;99527.41;1848553;77;21040;-71
2021/03/05 01:50:59;;;;;;;42.23;21.02;;;;;;;1.86;82.27;99526.66;1848768;77;21052;-72
2021/03/05 01:53:30;;;;;;;36.53;19.55;;;;;;;1.84;82.28;99533.55;1846021;77;21184;-71
2021/03/05 01:55:58;;;;;;;37.05;20.12;;;;;;;1.84;82.28;99545.95;1771503;80;21065;-70
2021/03/05 01:58:26;;;;;;;43.92;20.90;;;;;;;1.85;82.17;99547.63;1783302;80;20929;-68
2021/03/05 02:01:09;;;;;;;39.67;20.88;;;;;;;1.87;82.09;99539.89;1783360;80;20981;-69
2021/03/05 02:03:39;;;;;;;37.08;19.15;;;;;;;1.88;81.94;99548.83;1842813;77;21004;-71
2021/03/05 02:06:07;;;;;;;38.67;20.10;;;;;;;1.90;81.80;99552.20;1783238;80;21351;-69
2021/03/05 02:08:35;;;;;;;38.15;18.80;;;;;;;1.91;81.74;99550.03;1842697;77;20949;-67
2021/03/05 02:11:04;;;;;;;33.02;18.05;;;;;;;1.95;81.53;99551.63;1783263;80;20926;-74
2021/03/05 02:13:33;;;;;;;33.18;18.05;;;;;;;1.96;81.33;99561.45;1842717;77;21536;-73
2021/03/05 02:16:09;;;;;;;35.50;18.98;;;;;;;1.95;81.20;99564.91;1783370;80;21017;-73
2021/03/05 02:19:01;;;;;;;36.75;20.20;;;;;;;1.93;81.12;99563.67;1842564;77;21264;-73
2021/03/05 02:21:57;;;;;;;35.43;19.17;;;;;;;1.93;81.13;99571.81;1798399;77;21008;-73
2021/03/05 02:25:00;;;;;;;38.73;18.27;;;;;;;1.92;81.05;99578.67;1783432;80;21622;-73
2021/03/05 02:28:03;;;;;;;34.43;17.82;;;;;;;1.94;80.82;99571.77;1842282;77;20957;-67
2021/03/05 02:31:06;;;;;;;32.80;17.52;;;;;;;1.93;80.65;99580.36;1783269;80;21012;-68
2021/03/05 02:34:13;;;;;;;28.45;15.55;;;;;;;1.92;80.53;99572.25;1842670;77;21172;-67
2021/03/05 02:37:04;;;;;;;29.80;14.83;;;;;;;1.90;80.27;99577.03;1783429;80;21570;-67
2021/03/05 02:40:02;;;;;;;26.85;15.85;;;;;;;1.86;79.91;99585.70;1842837;77;20927;-66
2021/03/05 02:42:49;;;;;;;31.12;16.45;;;;;;;1.75;79.71;99582.14;1783245;80;20985;-67
2021/03/05 02:45:23;;;;;;;35.55;16.57;;;;;;;1.64;79.72;99588.84;1842613;77;21044;-69
2021/03/05 02:47:59;;;;;;;33.78;16.27;;;;;;;1.56;79.61;99595.93;1762294;80;22235;-68
2021/03/05 02:50:29;;;;;;;29.67;16.62;;;;;;;1.47;79.61;99584.63;1842666;77;21052;-67
2021/03/05 02:53:00;;;;;;;34.10;16.93;;;;;;;1.37;79.66;99586.17;1783232;79;20929;-69
2021/03/05 02:55:29;;;;;;;31.95;16.27;;;;;;;1.29;79.84;99588.93;1784121;80;21593;-70
2021/03/05 02:57:58;;;;;;;34.35;16.97;;;;;;;1.21;79.92;99590.41;1798724;79;20928;-69
2021/03/05 03:00:29;;;;;;;31.82;16.52;;;;;;;1.12;80.02;99597.07;1784083;80;21193;-67
2021/03/05 03:02:58;;;;;;;35.40;17.37;;;;;;;1.04;80.20;99595.56;1756245;80;20981;-67
2021/03/05 03:05:29;;;;;;;31.97;16.70;;;;;;;0.97;80.33;99600.84;1795823;80;21479;-66
2021/03/05 03:07:58;;;;;;;32.15;15.58;;;;;;;0.92;80.53;99601.39;1823298;78;21039;-66
2021/03/05 03:10:28;;;;;;;28.73;15.83;;;;;;;0.85;80.61;99604.13;1823423;78;21035;-66
2021/03/05 03:12:59;;;;;;;30.40;16.60;;;;;;;0.80;80.79;99613.67;1823419;78;21179;-66
2021/03/05 03:15:30;;;;;;;33.75;16.87;;;;;;;0.74;81.00;99611.24;1823316;78;21068;-66
2021/03/05 03:18:00;;;;;;;33.25;17.42;;;;;;;0.70;81.14;99621.16;1823311;78;21013;-67
2021/03/05 03:20:28;;;;;;;29.65;16.23;;;;;;;0.64;81.30;99622.13;1823354;78;21032;-68
2021/03/05 03:22:56;;;;;;;32.20;15.95;;;;;;;0.60;81.49;99619.23;1823419;78;20925;-67
2021/03/05 03:25:25;;;;;;;31.42;16.10;;;;;;;0.55;81.59;99621.05;1823384;78;21339;-66
2021/03/05 03:27:54;;;;;;;29.10;16.27;;;;;;;0.51;81.73;99626.67;1823412;78;21274;-68
2021/03/05 03:30:23;;;;;;;31.60;16.67;;;;;;;0.48;81.86;99625.47;1805598;78;20997;-67
2021/03/05 03:32:52;;;;;;;29.82;14.60;;;;;;;0.44;82.02;99630.25;1823335;78;20985;-68
2021/03/05 03:35:21;;;;;;;30.57;15.78;;;;;;;0.41;82.17;99625.63;1823349;78;20997;-71
2021/03/05 03:37:51;;;;;;;30.30;15.68;;;;;;;0.39;82.36;99624.84;1820687;78;21198;-69
2021/03/05 03:40:21;;;;;;;32.42;16.10;;;;;;;0.39;82.38;99625.69;1805496;78;21024;-68
2021/03/05 03:42:50;;;;;;;27.62;14.73;;;;;;;0.39;82.44;99629.97;1823351;78;20933;-68
2021/03/05 03:45:20;;;;;;;34.48;16.50;;;;;;;0.41;82.56;99632.88;1823427;78;21004;-67
2021/03/05 03:47:50;;;;;;;33.88;16.45;;;;;;;0.42;82.62;99637.55;1823353;78;21001;-67
2021/03/05 03:50:31;;;;;;;33.50;15.78;;;;;;;0.43;82.65;99637.52;1823392;78;21228;-67
2021/03/05 03:53:10;;;;;;;30.05;15.48;;;;;;;0.44;82.64;99635.80;1823330;78;20993;-68
2021/03/05 03:55:44;;;;;;;31.00;16.60;;;;;;;0.48;82.66;99642.55;1811044;77;27526;-71
2021/03/05 03:58:14;;;;;;;31.68;15.65;;;;;;;0.45;82.73;99640.05;1802735;79;21551;-69
2021/03/05 04:00:44;;;;;;;31.52;16.52;;;;;;;0.50;83.54;99643.36;1802425;79;21402;-70
2021/03/05 04:03:12;;;;;;;32.13;16.30;;;;;;;0.57;83.85;99645.77;1801364;79;21063;-67
2021/03/05 04:05:43;;;;;;;30.72;15.95;;;;;;;0.68;83.82;99648.53;1802515;79;20941;-69
2021/03/05 04:08:13;;;;;;;32.17;15.68;;;;;;;0.76;83.84;99651.33;1799763;79;21040;-66
2021/03/05 04:10:41;;;;;;;31.15;15.13;;;;;;;0.85;83.61;99653.66;1802684;79;20989;-68
2021/03/05 04:13:10;;;;;;;33.85;17.07;;;;;;;0.93;83.80;99650.93;1802713;79;21181;-67
2021/03/05 04:15:38;;;;;;;37.93;17.17;;;;;;;1.04;83.34;99658.37;1782719;79;21008;-67
2021/03/05 04:18:07;;;;;;;37.38;17.02;;;;;;;1.13;82.95;99662.02;1782793;79;20938;-68
2021/03/05 04:20:37;;;;;;;34.25;17.57;;;;;;;1.20;82.62;99660.99;1802737;79;21400;-68
2021/03/05 04:23:06;;;;;;;32.83;16.35;;;;;;;1.26;82.21;99656.53;1802721;79;20988;-67
2021/03/05 04:25:34;;;;;;;34.08;17.37;;;;;;;1.30;81.93;99649.17;1802685;79;21642;-67
2021/03/05 04:28:03;;;;;;;31.37;17.05;;;;;;;1.32;81.81;99652.54;1802547;79;20945;-74
2021/03/05 04:30:31;;;;;;;31.60;17.62;;;;;;;1.35;81.39;99647.77;1802667;79;20985;-70
2021/03/05 04:32:59;;;;;;;31.40;15.13;;;;;;;1.36;81.07;99645.61;1802622;79;20980;-69
2021/03/05 04:35:28;;;;;;;36.08;16.40;;;;;;;1.39;81.06;99656.23;1802613;79;21020;-69
2021/03/05 04:37:56;;;;;;;31.68;16.02;;;;;;;1.41;80.94;99654.48;1802674;79;21252;-69
2021/03/05 04:40:25;;;;;;;27.20;15.45;;;;;;;1.41;80.75;99657.89;1802711;79;20933;-69
2021/03/05 04:42:54;;;;;;;34.20;16.60;;;;;;;1.43;80.87;99653.56;1802686;79;20941;-67
2021/03/05 04:45:22;;;;;;;29.45;15.78;;;;;;;1.48;80.80;99661.98;1802622;79;21464;-68
2021/03/05 04:47:52;;;;;;;33.95;17.27;;;;;;;1.53;80.52;99659.31;1802664;79;21495;-67
2021/03/05 04:50:20;;;;;;;31.40;15.98;;;;;;;1.55;80.40;99672.50;1802660;79;21336;-67
2021/03/05 04:52:49;;;;;;;32.45;17.57;;;;;;;1.57;80.22;99673.31;1802560;79;21012;-67
2021/03/05 04:55:18;;;;;;;31.57;16.12;;;;;;;1.58;80.20;99670.30;1802420;77;20961;-67
2021/03/05 04:57:47;;;;;;;48.98;28.02;;;;;;;1.62;80.48;99673.16;1802514;79;21495;-66
2021/03/05 05:00:15;;;;;;;36.20;18.23;;;;;;;1.66;79.94;99676.90;1802601;79;20981;-66
2021/03/05 05:02:44;;;;;;;34.80;18.77;;;;;;;1.67;79.61;99689.29;1802614;79;21193;-67
2021/03/05 05:05:13;;;;;;;29.25;16.25;;;;;;;1.65;79.34;99692.34;1802461;79;20929;-67
2021/03/05 05:07:42;;;;;;;32.85;18.30;;;;;;;1.61;79.20;99697.14;1802064;79;20985;-66
2021/03/05 05:10:11;;;;;;;32.20;17.52;;;;;;;1.57;79.30;99696.41;1802036;79;21523;-67
2021/03/05 05:12:40;;;;;;;31.60;17.80;;;;;;;1.56;79.29;99696.44;1802162;79;20961;-71
2021/03/05 05:15:09;;;;;;;32.70;16.52;;;;;;;1.55;79.31;99698.61;1801983;79;21646;-67
2021/03/05 05:17:37;;;;;;;33.75;16.85;;;;;;;1.55;79.33;99699.89;1802035;79;21024;-67
2021/03/05 05:20:07;;;;;;;31.52;16.93;;;;;;;1.57;79.88;99701.53;1802049;79;20913;-67
2021/03/05 05:22:37;;;;;;;33.23;16.30;;;;;;;1.63;79.88;99706.48;1802371;79;20926;-69
2021/03/05 05:25:08;;;;;;;32.80;17.30;;;;;;;1.70;79.90;99714.03;1802516;79;21016;-66
2021/03/05 05:27:37;;;;;;;33.90;18.05;;;;;;;1.79;79.70;99721.06;1802759;79;21624;-71
2021/03/05 05:30:07;;;;;;;30.40;17.00;;;;;;;1.84;79.14;99720.52;1802980;79;21372;-74
2021/03/05 05:32:35;;;;;;;33.33;17.57;;;;;;;1.88;78.92;99726.41;1802157;79;21300;-69
2021/03/05 05:35:05;;;;;;;37.15;18.23;;;;;;;1.92;78.83;99723.73;1801913;79;20929;-72
2021/03/05 05:37:33;;;;;;;36.33;18.75;;;;;;;1.96;78.58;99730.48;1802072;79;20890;-69
2021/03/05 05:40:02;;;;;;;34.63;18.32;;;;;;;2.00;78.39;99733.77;1801998;79;21431;-71
2021/03/05 05:42:31;;;;;;;33.30;18.17;;;;;;;2.04;78.17;99731.97;1801990;79;20969;-75
2021/03/05 05:44:59;;;;;;;35.03;17.82;;;;;;;2.06;78.08;99741.77;1802006;79;20977;-72
2021/03/05 05:47:29;;;;;;;34.73;18.00;;;;;;;2.07;77.88;99744.30;1801936;79;21610;-73
2021/03/05 05:50:01;;;;;;;33.15;19.15;;;;;;;2.11;77.73;99745.91;1801964;79;21016;-72
2021/03/05 05:52:31;;;;;;;32.13;17.77;;;;;;;2.16;77.57;99752.20;1802070;79;21192;-69
2021/03/05 05:55:01;;;;;;;32.10;17.35;;;;;;;2.19;77.32;99760.67;1801917;77;21013;-81
2021/03/05 05:57:30;;;;;;;29.85;16.80;;;;;;;2.22;77.12;99750.77;1791389;78;20973;-73
2021/03/05 06:00:00;;;;;;;32.67;15.85;;;;;;;2.23;77.13;99750.72;1779201;78;21052;-67
2021/03/05 06:02:29;;;;;;;32.70;17.70;;;;;;;2.27;77.14;99755.34;1790564;78;21173;-76
2021/03/05 06:05:04;;;;;;;30.50;15.68;;;;;;;2.32;76.93;99756.06;1769686;79;21196;-74
2021/03/05 06:07:33;;;;;;;31.82;16.80;;;;;;;2.39;76.62;99757.59;1773906;80;21036;-69
2021/03/05 06:10:05;;;;;;;34.27;17.60;;;;;;;2.46;76.12;99764.66;1775681;78;20999;-75
2021/03/05 06:12:34;;;;;;;31.02;16.67;;;;;;;2.51;75.89;99753.81;1785323;78;21019;-74
2021/03/05 06:15:03;;;;;;;33.90;17.77;;;;;;;2.56;75.61;99766.94;1774419;78;21043;-72
2021/03/05 06:17:47;;;;;;;31.20;17.32;;;;;;;2.61;75.09;99766.81;1792574;79;22172;-70
2021/03/05 06:20:17;;;;;;;31.62;17.07;;;;;;;2.64;74.95;99772.72;1786195;79;21654;-84
2021/03/05 06:22:48;;;;;;;35.80;17.75;;;;;;;2.68;74.59;99774.31;1779045;79;21067;-76
2021/03/05 06:25:36;;;;;;;31.82;16.87;;;;;;;2.73;74.41;99772.06;1756094;80;21035;-70
2021/03/05 06:28:14;;;;;;;33.00;16.23;;;;;;;2.77;74.06;99774.50;1784869;79;21023;-73
2021/03/05 06:30:43;;;;;;;33.00;17.82;;;;;;;2.80;73.80;99780.00;1790232;78;21259;-69
2021/03/05 06:33:49;;;;;;;30.12;16.00;;;;;;;2.80;73.69;99789.81;1783802;79;21063;-77
2021/03/05 06:36:35;;;;;;;30.32;17.02;;;;;;;2.78;73.49;99787.77;1787190;79;21598;-75
2021/03/05 06:39:04;;;;;;;29.35;15.83;;;;;;;2.74;73.57;99789.17;1741990;79;21060;-75
2021/03/05 06:41:35;;;;;;;30.08;16.75;;;;;;;2.72;73.34;99793.52;1794135;79;21244;-74
2021/03/05 06:44:04;;;;;;;31.23;15.93;;;;;;;2.71;73.34;99792.67;1780526;79;21414;-73
2021/03/05 06:46:39;;;;;;;29.85;16.37;;;;;;;2.72;72.96;99794.36;1750239;79;21000;-70
2021/03/05 06:49:11;;;;;;;33.33;16.45;;;;;;;2.71;72.87;99790.10;1770914;79;20989;-74
2021/03/05 06:51:40;;;;;;;32.67;16.05;;;;;;;2.73;72.73;99797.77;1779414;79;21072;-75
2021/03/05 06:54:12;;;;;;;35.60;18.73;;;;;;;2.76;72.41;99797.69;1781580;79;21156;-70
2021/03/05 06:56:44;;;;;;;29.48;17.90;;;;;;;2.77;72.46;99793.79;1787106;79;21207;-71
2021/03/05 06:59:14;;;;;;;35.65;18.10;;;;;;;2.81;72.19;99792.78;1785044;79;21039;-79
2021/03/05 07:01:51;;;;;;;32.78;17.42;;;;;;;2.86;72.00;99798.64;1762622;79;20999;-74
2021/03/05 07:04:22;;;;;;;30.32;16.95;;;;;;;2.94;71.75;99797.14;1795878;78;21030;-68
2021/03/05 07:07:11;;;;;;;31.50;16.93;;;;;;;3.05;71.36;99804.56;1792582;79;21724;-67
2021/03/05 07:09:53;;;;;;;33.50;15.78;;;;;;;3.13;70.52;99798.75;1787370;79;22895;-81
2021/03/05 07:12:26;;;;;;;30.08;14.75;;;;;;;3.26;70.39;99797.03;1787457;79;20996;-70
2021/03/05 07:15:06;;;;;;;26.05;14.43;;;;;;;3.43;69.78;99799.09;1785787;79;21296;-76
2021/03/05 07:17:35;;;;;;;25.82;13.55;;;;;;;3.57;68.60;99798.23;1789910;79;21007;-67
2021/03/05 07:20:07;;;;;;;20.30;11.90;;;;;;;3.68;68.58;99807.73;1799664;79;21034;-71
2021/03/05 07:22:35;;;;;;;20.80;12.18;;;;;;;3.88;67.84;99807.11;1793205;79;21263;-73
2021/03/05 07:25:06;;;;;;;23.57;14.60;;;;;;;4.05;66.41;99808.27;1789524;79;21124;-70
2021/03/05 07:27:38;;;;;;;25.37;14.05;;;;;;;4.10;66.11;99800.78;1803075;79;21510;-71
2021/03/05 07:30:14;;;;;;;22.32;13.08;;;;;;;4.18;65.52;99805.69;1772979;79;21026;-77
2021/03/05 07:32:48;;;;;;;24.10;13.68;;;;;;;4.23;65.50;99805.93;1770261;81;21028;-81
2021/03/05 07:35:26;;;;;;;25.77;13.43;;;;;;;4.28;65.16;99809.20;1793745;79;21361;-74
2021/03/05 07:38:04;;;;;;;20.48;12.07;;;;;;;4.35;65.55;99806.81;1804203;79;21012;-81
2021/03/05 07:40:35;;;;;;;20.17;12.55;;;;;;;4.56;64.80;99813.38;1799567;79;21526;-74
2021/03/05 07:43:04;;;;;;;20.85;11.68;;;;;;;4.73;64.42;99804.61;1732014;81;21032;-69
2021/03/05 07:45:34;;;;;;;22.55;12.43;;;;;;;4.93;64.08;99802.13;1785367;78;21121;-67
2021/03/05 07:48:04;;;;;;;21.37;12.73;;;;;;;5.02;63.00;99816.44;1764921;80;21636;-69
2021/03/05 07:50:33;;;;;;;18.55;11.48;;;;;;;5.05;62.74;99817.63;1801927;77;21311;-73
2021/03/05 07:53:01;;;;;;;19.55;11.08;;;;;;;4.94;62.18;99817.16;1833371;76;20924;-72
2021/03/05 07:55:40;;;;;;;18.85;10.98;;;;;;;4.73;62.43;99811.06;1818903;77;21058;-73
2021/03/05 07:58:08;;;;;;;18.57;11.65;;;;;;;4.60;62.65;99814.52;1816905;77;21176;-75
2021/03/05 08:00:49;;;;;;;20.35;11.50;;;;;;;4.63;62.46;99808.41;1831724;77;22207;-71
2021/03/05 08:03:19;;;;;;;19.67;11.70;;;;;;;4.72;62.98;99817.12;1824142;77;21078;-68
2021/03/05 08:05:50;;;;;;;17.37;10.85;;;;;;;4.86;61.73;99820.47;1745887;79;21011;-68
2021/03/05 08:08:26;;;;;;;16.42;11.05;;;;;;;4.84;61.17;99816.66;1770761;80;21498;-79
2021/03/05 08:11:00;;;;;;;17.02;9.83;;;;;;;4.79;60.83;99821.61;1824517;76;20995;-76
2021/03/05 08:13:52;;;;;;;16.07;10.10;;;;;;;4.79;61.72;99821.16;1822108;76;21190;-72
2021/03/05 08:16:33;;;;;;;17.12;10.28;;;;;;;4.96;60.95;99829.11;1818363;77;21603;-70
2021/03/05 08:19:14;;;;;;;21.40;11.57;;;;;;;5.12;60.44;99828.11;1835266;77;21177;-69
2021/03/05 08:22:02;;;;;;;20.72;11.53;;;;;;;5.21;60.43;99829.03;1824911;76;21961;-72
2021/03/05 08:24:41;;;;;;;21.75;11.88;;;;;;;5.28;61.15;99824.04;1815522;76;20951;-73
2021/03/05 08:27:19;;;;;;;20.95;12.33;;;;;;;5.44;60.84;99819.59;1815574;77;21240;-75
2021/03/05 08:30:06;;;;;;;13.85;9.70;;;;;;;5.46;59.81;99825.54;1820470;77;21054;-75
2021/03/05 08:32:51;;;;;;;14.93;10.00;;;;;;;5.33;60.30;99822.12;1812205;77;28201;-73
2021/03/05 08:35:36;;;;;;;15.70;9.53;;;;;;;5.35;60.51;99817.75;1805996;78;21060;-73
2021/03/05 08:38:14;;;;;;;13.85;9.08;;;;;;;5.39;59.88;99827.96;1828827;77;21731;-79
2021/03/05 08:40:52;;;;;;;17.25;10.48;;;;;;;5.26;58.80;99823.25;1833070;77;21126;-77
2021/03/05 08:43:24;;;;;;;17.20;10.08;;;;;;;5.10;59.55;99831.64;1827934;76;21010;-72
2021/03/05 08:46:03;;;;;;;17.52;10.72;;;;;;;5.06;60.45;99834.78;1824675;77;21038;-70
2021/03/05 08:48:41;;;;;;;13.88;9.48;;;;;;;5.20;60.19;99835.09;1823204;77;21046;-76
2021/03/05 08:51:35;;;;;;;16.42;10.00;;;;;;;5.35;60.17;99836.27;1830239;77;21289;-74
2021/03/05 08:54:04;;;;;;;15.28;10.05;;;;;;;5.41;60.87;99834.75;1703923;82;21320;-70
2021/03/05 08:56:34;;;;;;;19.12;11.20;;;;;;;5.48;60.80;99832.78;1729658;82;21856;-70
2021/03/05 08:59:04;;;;;;;14.05;9.48;;;;;;;5.57;59.56;99832.42;1727110;82;20969;-70
2021/03/05 09:01:39;;;;;;;16.05;10.23;;;;;;;5.58;59.74;99828.95;1693786;83;21042;-70
2021/03/05 09:04:16;;;;;;;13.18;9.75;;;;;;;5.59;58.91;99831.47;1712174;83;20988;-75
2021/03/05 09:06:57;;;;;;;16.40;9.75;;;;;;;5.55;57.75;99829.91;1724075;83;21473;-71
2021/03/05 09:09:28;;;;;;;15.78;9.48;;;;;;;5.46;57.82;99838.45;1722444;83;21511;-70
2021/03/05 09:12:09;;;;;;;12.88;9.63;;;;;;;5.41;58.53;99846.37;1700713;83;21018;-72
2021/03/05 09:14:37;;;;;;;14.13;9.20;;;;;;;5.52;58.48;99843.38;1699921;83;21123;-78
2021/03/05 09:17:06;;;;;;;14.70;9.55;;;;;;;5.67;57.91;99844.06;1726657;81;21046;-71
2021/03/05 09:19:42;;;;;;;13.45;9.28;;;;;;;5.83;58.13;99842.56;1687451;83;21490;-70
2021/03/05 09:22:18;;;;;;;18.05;10.50;;;;;;;6.06;58.18;99852.45;1729256;81;21087;-72
2021/03/05 09:24:58;;;;;;;;;;;;;;;6.15;56.33;99850.79;1682996;84;21048;-76
2021/03/05 09:27:31;;;;;;;13.78;9.50;;;;;;;6.13;57.61;99852.59;1670435;85;20187;-71
2021/03/05 09:30:00;;;;;;;13.53;9.88;;;;;;;6.19;57.68;99854.93;1730564;81;22090;-68
2021/03/05 09:32:28;;;;;;;13.93;9.95;;;;;;;6.32;57.39;99860.00;1697103;84;21525;-71
2021/03/05 09:34:59;;;;;;;15.93;9.78;;;;;;;6.45;56.87;99857.72;1694612;84;21194;-70
2021/03/05 09:37:31;;;;;;;14.55;9.93;;;;;;;6.62;57.35;99863.03;1710018;83;21068;-74
2021/03/05 09:40:02;;;;;;;13.90;9.13;;;;;;;6.75;55.40;99869.82;1705993;83;21062;-71
2021/03/05 09:42:56;;;;;;;14.75;9.83;;;;;;;6.78;56.17;99865.81;1698793;83;21581;-78
2021/03/05 09:45:52;;;;;;;13.65;9.78;;;;;;;6.82;55.65;99879.81;1704285;83;21395;-70
2021/03/05 09:48:34;;;;;;;14.43;9.13;;;;;;;6.78;55.11;99879.59;1695543;83;21604;-67
2021/03/05 09:51:06;;;;;;;11.97;9.00;;;;;;;6.68;54.45;99884.31;1717501;83;22193;-73
2021/03/05 09:53:38;;;;;;;14.58;9.78;;;;;;;6.59;55.62;99883.40;1704214;83;21023;-75
2021/03/05 09:56:07;;;;;;;12.58;9.15;;;;;;;6.59;55.41;99882.11;1708132;82;21088;-73
2021/03/05 09:58:36;;;;;;;11.68;8.43;;;;;;;6.56;54.20;99884.82;1711331;82;21490;-73
2021/03/05 10:01:05;;;;;;;14.47;8.88;;;;;;;6.48;54.24;99888.17;1708294;83;21054;-75
2021/03/05 10:03:36;;;;;;;11.40;8.48;;;;;;;6.43;54.22;99881.05;1709562;83;21058;-69
2021/03/05 10:06:08;;;;;;;13.40;8.85;;;;;;;6.41;54.49;99884.61;1704266;83;21064;-72
2021/03/05 10:08:37;;;;;;;12.45;8.45;;;;;;;6.34;54.27;99887.47;1703576;83;21032;-74
2021/03/05 10:11:11;;;;;;;14.28;8.90;;;;;;;6.29;54.62;99880.36;1707642;82;21212;-72
2021/03/05 10:13:55;;;;;;;11.73;8.45;;;;;;;6.30;54.81;99885.08;1704153;83;21048;-68
2021/03/05 10:16:34;;;;;;;11.53;8.70;;;;;;;6.33;54.75;99885.80;1680400;83;21036;-67
2021/03/05 10:19:07;;;;;;;12.63;8.78;;;;;;;6.35;53.85;99889.61;1705085;83;21050;-65
2021/03/05 10:21:48;;;;;;;12.93;7.55;;;;;;;6.36;53.76;99893.87;1708416;82;21056;-80
2021/03/05 10:24:23;;;;;;;9.23;6.80;;;;;;;6.39;54.06;99886.00;1707626;82;21928;-74
2021/03/05 10:29:52;;;;;;;9.75;7.15;;;;;;;6.35;53.14;99893.03;1704782;83;21044;-69
2021/03/05 10:32:28;;;;;;;10.80;8.13;;;;;;;6.33;52.83;99899.17;1696272;84;21630;-70
2021/03/05 10:35:01;;;;;;;10.85;7.58;;;;;;;6.25;52.62;99903.81;1701870;83;21140;-70
2021/03/05 10:37:30;;;;;;;9.50;7.17;;;;;;;6.12;51.96;99904.75;1709544;83;21162;-70
2021/03/05 10:40:02;;;;;;;10.18;6.45;;;;;;;5.90;51.95;99908.64;1708629;83;21197;-73
2021/03/05 10:42:31;;;;;;;11.65;8.10;;;;;;;5.65;51.99;99914.31;1709556;83;21434;-76
2021/03/05 10:45:00;;;;;;;14.10;7.03;;;;;;;5.47;51.99;99915.86;1706721;83;20999;-70
2021/03/05 10:47:33;;;;;;;11.63;7.05;;;;;;;5.28;51.46;99911.81;1690999;83;21704;-75
2021/03/05 10:50:03;;;;;;;8.48;6.33;;;;;;;5.12;52.64;99908.13;1700068;83;21382;-79
2021/03/05 10:52:32;;;;;;;7.87;6.28;;;;;;;5.10;52.70;99907.33;1709189;82;21032;-82
2021/03/05 10:55:00;;;;;;;10.20;6.37;;;;;;;5.10;52.53;99899.59;1707101;82;21052;-74
2021/03/05 10:57:39;;;;;;;7.83;5.40;;;;;;;5.12;52.84;99896.95;1711858;83;21034;-71
2021/03/05 11:00:11;;;;;;;6.78;5.00;;;;;;;5.22;52.76;99899.12;1703636;82;21146;-77
2021/03/05 11:02:39;;;;;;;8.60;5.10;;;;;;;5.32;53.36;99901.77;1714597;83;21215;-75
2021/03/05 11:05:09;;;;;;;5.28;4.45;;;;;;;5.47;52.31;99903.40;1706354;84;21116;-73
2021/03/05 11:07:38;;;;;;;5.25;4.00;;;;;;;5.56;51.47;99905.19;1706254;84;21028;-78
2021/03/05 11:10:07;;;;;;;4.95;3.87;;;;;;;5.70;50.36;99902.91;1686300;83;21087;-73
2021/03/05 11:12:37;;;;;;;4.47;3.70;;;;;;;5.84;49.74;99895.92;1709047;83;21052;-73
2021/03/05 11:15:08;;;;;;;6.80;4.55;;;;;;;5.99;50.05;99889.36;1699752;84;21395;-73
2021/03/05 11:17:37;;;;;;;7.53;5.12;;;;;;;6.13;50.51;99879.73;1709326;82;21063;-71
2021/03/05 11:20:07;;;;;;;6.40;5.35;;;;;;;6.26;50.99;99895.16;1707085;83;21014;-76
2021/03/05 11:22:36;;;;;;;8.68;5.85;;;;;;;6.38;49.55;99902.41;1701786;84;21006;-75
2021/03/05 11:25:05;;;;;;;7.90;6.12;;;;;;;6.28;47.93;99899.36;1701761;84;21643;-69
2021/03/05 11:27:35;;;;;;;9.80;5.97;;;;;;;6.15;49.66;99897.32;1701863;84;21376;-77
2021/03/05 11:30:04;;;;;;;8.38;6.35;;;;;;;6.12;49.60;99894.41;1702661;83;21029;-77
2021/03/05 11:32:36;;;;;;;9.00;6.22;;;;;;;6.14;50.03;99897.77;1709257;82;20977;-75
2021/03/05 11:35:06;;;;;;;8.40;5.78;;;;;;;6.17;49.46;99898.94;1718482;83;21054;-75
2021/03/05 11:37:35;;;;;;;7.58;5.40;;;;;;;6.19;49.09;99905.34;1721957;83;21044;-74
2021/03/05 11:40:06;;;;;;;6.60;5.25;;;;;;;6.16;49.21;99911.93;1726792;82;21288;-70
2021/03/05 11:42:35;;;;;;;6.90;4.70;;;;;;;6.15;49.85;99907.66;1725751;82;21099;-69
2021/03/05 11:45:05;;;;;;;6.53;5.25;;;;;;;6.22;49.69;99907.36;1709966;82;20931;-77
2021/03/05 11:47:34;;;;;;;9.65;7.22;;;;;;;6.27;48.99;99913.19;1703203;84;21077;-69
2021/03/05 11:50:03;;;;;;;11.28;8.08;;;;;;;6.30;48.56;99918.69;1704054;84;20899;-74
2021/03/05 11:52:31;;;;;;;7.37;6.40;;;;;;;6.33;48.03;99917.28;1704431;84;21541;-77
2021/03/05 11:55:01;;;;;;;6.05;4.37;;;;;;;6.37;47.86;99918.84;1724913;82;20956;-79
2021/03/05 11:57:30;;;;;;;5.95;4.40;;;;;;;6.44;48.92;99927.16;1711876;83;20955;-83